sensor_id;sensor_type;location;lat;lon;timestamp;pressure;altitude;pressure_sealevel;temperature;humidity
71770;BME280;59605;52.122;5.420;2022-11-24T00:00:51;100270.16;;;20.55;48.56
71770;BME280;59605;52.122;5.420;2022-11-24T00:03:17;100264.09;;;20.54;48.40
71770;BME280;59605;52.122;5.420;2022-11-24T00:05:44;100256.25;;;20.54;48.36
71770;BME280;59605;52.122;5.420;2022-11-24T00:08:11;100258.03;;;20.54;48.27
71770;BME280;59605;52.122;5.420;2022-11-24T00:10:38;100250.22;;;20.54;48.37
71770;BME280;59605;52.122;5.420;2022-11-24T00:13:04;100267.69;;;20.53;48.48
71770;BME280;59605;52.122;5.420;2022-11-24T00:15:30;100277.28;;;20.53;48.16
71770;BME280;59605;52.122;5.420;2022-11-24T00:17:57;100288.56;;;20.53;48.43
71770;BME280;59605;52.122;5.420;2022-11-24T00:20:23;100284.28;;;20.52;48.29
71770;BME280;59605;52.122;5.420;2022-11-24T00:22:50;100289.50;;;20.52;48.46
71770;BME280;59605;52.122;5.420;2022-11-24T00:25:16;100288.69;;;20.52;47.96
71770;BME280;59605;52.122;5.420;2022-11-24T00:27:42;100287.84;;;20.51;48.37
71770;BME280;59605;52.122;5.420;2022-11-24T00:30:09;100287.84;;;20.51;48.33
71770;BME280;59605;52.122;5.420;2022-11-24T00:32:36;100287.03;;;20.51;48.02
71770;BME280;59605;52.122;5.420;2022-11-24T00:35:02;100290.47;;;20.51;47.94
71770;BME280;59605;52.122;5.420;2022-11-24T00:37:29;100289.78;;;20.49;47.91
71770;BME280;59605;52.122;5.420;2022-11-24T00:39:56;100295.00;;;20.49;47.91
71770;BME280;59605;52.122;5.420;2022-11-24T00:42:22;100282.91;;;20.48;47.96
71770;BME280;59605;52.122;5.420;2022-11-24T00:44:48;100287.31;;;20.48;48.34
71770;BME280;59605;52.122;5.420;2022-11-24T00:47:15;100289.78;;;20.49;47.93
71770;BME280;59605;52.122;5.420;2022-11-24T00:49:41;100290.72;;;20.48;47.94
71770;BME280;59605;52.122;5.420;2022-11-24T00:52:08;100296.94;;;20.47;48.07
71770;BME280;59605;52.122;5.420;2022-11-24T00:54:34;100289.22;;;20.46;48.19
71770;BME280;59605;52.122;5.420;2022-11-24T00:57:01;100297.03;;;20.46;48.13
71770;BME280;59605;52.122;5.420;2022-11-24T00:59:27;100314.50;;;20.45;47.74
71770;BME280;59605;52.122;5.420;2022-11-24T01:01:53;100311.06;;;20.45;47.92
71770;BME280;59605;52.122;5.420;2022-11-24T01:04:21;100312.84;;;20.44;47.87
71770;BME280;59605;52.122;5.420;2022-11-24T01:06:47;100315.44;;;20.44;47.91
71770;BME280;59605;52.122;5.420;2022-11-24T01:09:13;100321.66;;;20.43;47.73
71770;BME280;59605;52.122;5.420;2022-11-24T01:11:40;100317.38;;;20.42;47.89
71770;BME280;59605;52.122;5.420;2022-11-24T01:14:25;100320.81;;;20.43;47.79
71770;BME280;59605;52.122;5.420;2022-11-24T01:16:52;100321.66;;;20.43;47.88
71770;BME280;59605;52.122;5.420;2022-11-24T01:19:19;100317.38;;;20.42;47.70
71770;BME280;59605;52.122;5.420;2022-11-24T01:21:46;100329.63;;;20.42;47.99
71770;BME280;59605;52.122;5.420;2022-11-24T01:24:12;100329.75;;;20.40;47.63
71770;BME280;59605;52.122;5.420;2022-11-24T01:26:39;100328.09;;;20.39;47.79
71770;BME280;59605;52.122;5.420;2022-11-24T01:29:06;100326.44;;;20.38;47.83
71770;BME280;59605;52.122;5.420;2022-11-24T01:31:33;100328.22;;;20.37;47.53
71770;BME280;59605;52.122;5.420;2022-11-24T01:33:59;100328.22;;;20.37;47.85
71770;BME280;59605;52.122;5.420;2022-11-24T01:36:25;100336.06;;;20.37;47.69
71770;BME280;59605;52.122;5.420;2022-11-24T01:38:52;100332.59;;;20.37;47.52
71770;BME280;59605;52.122;5.420;2022-11-24T01:41:21;100330.97;;;20.36;47.45
71770;BME280;59605;52.122;5.420;2022-11-24T01:43:49;100334.53;;;20.35;47.40
71770;BME280;59605;52.122;5.420;2022-11-24T01:49:10;100343.19;;;20.35;47.73
71770;BME280;59605;52.122;5.420;2022-11-24T01:52:00;100343.31;;;20.34;47.54
71770;BME280;59605;52.122;5.420;2022-11-24T01:54:32;100338.22;;;20.32;47.69
71770;BME280;59605;52.122;5.420;2022-11-24T01:57:26;100347.84;;;20.32;47.74
71770;BME280;59605;52.122;5.420;2022-11-24T01:59:55;100347.03;;;20.31;47.78
71770;BME280;59605;52.122;5.420;2022-11-24T02:02:23;100351.41;;;20.31;47.52
71770;BME280;59605;52.122;5.420;2022-11-24T02:04:51;100356.63;;;20.31;47.60
71770;BME280;59605;52.122;5.420;2022-11-24T02:07:17;100348.78;;;20.31;47.73
71770;BME280;59605;52.122;5.420;2022-11-24T02:09:48;100336.72;;;20.30;47.84
71770;BME280;59605;52.122;5.420;2022-11-24T02:12:16;100358.41;;;20.30;47.71
71770;BME280;59605;52.122;5.420;2022-11-24T02:14:43;100354.16;;;20.29;47.66
71770;BME280;59605;52.122;5.420;2022-11-24T02:17:11;100353.34;;;20.29;47.40
71770;BME280;59605;52.122;5.420;2022-11-24T02:19:50;100363.78;;;20.29;47.60
71770;BME280;59605;52.122;5.420;2022-11-24T02:22:46;100355.13;;;20.28;47.53
71770;BME280;59605;52.122;5.420;2022-11-24T02:27:52;100365.66;;;20.27;47.33
71770;BME280;59605;52.122;5.420;2022-11-24T02:30:20;100356.88;;;20.28;47.76
71770;BME280;59605;52.122;5.420;2022-11-24T02:32:46;100371.03;;;20.25;47.68
71770;BME280;59605;52.122;5.420;2022-11-24T02:35:13;100370.88;;;20.27;47.75
71770;BME280;59605;52.122;5.420;2022-11-24T02:37:39;100368.41;;;20.25;47.73
71770;BME280;59605;52.122;5.420;2022-11-24T02:40:06;100378.03;;;20.25;47.46
71770;BME280;59605;52.122;5.420;2022-11-24T02:42:36;100372.00;;;20.24;47.63
71770;BME280;59605;52.122;5.420;2022-11-24T02:45:05;100373.75;;;20.23;47.43
71770;BME280;59605;52.122;5.420;2022-11-24T02:47:33;100385.03;;;20.24;47.37
71770;BME280;59605;52.122;5.420;2022-11-24T02:49:59;100375.56;;;20.23;47.69
71770;BME280;59605;52.122;5.420;2022-11-24T02:52:26;100381.59;;;20.23;47.28
71770;BME280;59605;52.122;5.420;2022-11-24T02:54:52;100377.34;;;20.22;47.46
71770;BME280;59605;52.122;5.420;2022-11-24T02:57:21;100387.78;;;20.22;47.33
71770;BME280;59605;52.122;5.420;2022-11-24T02:59:47;100378.31;;;20.21;47.44
71770;BME280;59605;52.122;5.420;2022-11-24T03:02:14;100378.31;;;20.21;47.59
71770;BME280;59605;52.122;5.420;2022-11-24T03:04:40;100387.91;;;20.21;47.28
71770;BME280;59605;52.122;5.420;2022-11-24T03:07:06;100381.03;;;20.20;47.28
71770;BME280;59605;52.122;5.420;2022-11-24T03:09:33;100385.44;;;20.19;47.33
71770;BME280;59605;52.122;5.420;2022-11-24T03:11:59;100374.03;;;20.20;47.25
71770;BME280;59605;52.122;5.420;2022-11-24T03:14:26;100368.94;;;20.19;47.56
71770;BME280;59605;52.122;5.420;2022-11-24T03:16:52;100375.09;;;20.18;47.27
71770;BME280;59605;52.122;5.420;2022-11-24T03:19:18;100373.47;;;20.17;47.39
71770;BME280;59605;52.122;5.420;2022-11-24T03:21:45;100384.72;;;20.17;47.57
71770;BME280;59605;52.122;5.420;2022-11-24T03:24:11;100381.19;;;20.18;47.37
71770;BME280;59605;52.122;5.420;2022-11-24T03:26:38;100389.94;;;20.17;47.25
71770;BME280;59605;52.122;5.420;2022-11-24T03:29:04;100383.06;;;20.16;47.41
71770;BME280;59605;52.122;5.420;2022-11-24T03:31:30;100386.66;;;20.15;47.21
71770;BME280;59605;52.122;5.420;2022-11-24T03:33:57;100391.03;;;20.15;47.53
71770;BME280;59605;52.122;5.420;2022-11-24T03:36:24;100389.25;;;20.15;47.57
71770;BME280;59605;52.122;5.420;2022-11-24T03:38:50;100392.81;;;20.14;47.08
71770;BME280;59605;52.122;5.420;2022-11-24T03:41:16;100397.09;;;20.15;47.26
71770;BME280;59605;52.122;5.420;2022-11-24T03:43:43;100390.22;;;20.14;47.43
71770;BME280;59605;52.122;5.420;2022-11-24T03:46:11;100392.94;;;20.13;47.13
71770;BME280;59605;52.122;5.420;2022-11-24T03:48:37;100392.00;;;20.14;47.53
71770;BME280;59605;52.122;5.420;2022-11-24T03:51:04;100398.84;;;20.15;47.30
71770;BME280;59605;52.122;5.420;2022-11-24T03:53:31;100398.97;;;20.13;47.50
71770;BME280;59605;52.122;5.420;2022-11-24T03:55:59;100406.13;;;20.11;47.25
71770;BME280;59605;52.122;5.420;2022-11-24T03:58:27;100406.94;;;20.12;47.32
71770;BME280;59605;52.122;5.420;2022-11-24T04:00:54;100407.78;;;20.12;47.25
71770;BME280;59605;52.122;5.420;2022-11-24T04:03:21;100414.78;;;20.12;47.35
71770;BME280;59605;52.122;5.420;2022-11-24T04:05:48;100408.75;;;20.11;47.46
71770;BME280;59605;52.122;5.420;2022-11-24T04:08:15;100412.28;;;20.10;47.55
71770;BME280;59605;52.122;5.420;2022-11-24T04:10:42;100407.22;;;20.09;47.22
71770;BME280;59605;52.122;5.420;2022-11-24T04:13:16;100416.69;;;20.10;47.18
71770;BME280;59605;52.122;5.420;2022-11-24T04:15:43;100418.47;;;20.09;47.20
71770;BME280;59605;52.122;5.420;2022-11-24T04:18:11;100430.69;;;20.09;47.30
71770;BME280;59605;52.122;5.420;2022-11-24T04:20:39;100433.28;;;20.09;47.32
71770;BME280;59605;52.122;5.420;2022-11-24T04:23:05;100434.38;;;20.06;47.05
71770;BME280;59605;52.122;5.420;2022-11-24T04:25:32;100429.16;;;20.06;47.13
71770;BME280;59605;52.122;5.420;2022-11-24T04:27:59;100435.22;;;20.07;47.19
71770;BME280;59605;52.122;5.420;2022-11-24T04:30:26;100438.78;;;20.05;47.35
71770;BME280;59605;52.122;5.420;2022-11-24T04:32:53;100444.81;;;20.06;47.28
71770;BME280;59605;52.122;5.420;2022-11-24T04:35:20;100443.19;;;20.05;47.27
71770;BME280;59605;52.122;5.420;2022-11-24T04:37:46;100450.16;;;20.04;47.32
71770;BME280;59605;52.122;5.420;2022-11-24T04:40:13;100451.13;;;20.03;47.39
71770;BME280;59605;52.122;5.420;2022-11-24T04:42:40;100447.53;;;20.04;47.39
71770;BME280;59605;52.122;5.420;2022-11-24T04:45:07;100463.31;;;20.03;47.21
71770;BME280;59605;52.122;5.420;2022-11-24T04:47:34;100463.31;;;20.03;47.03
71770;BME280;59605;52.122;5.420;2022-11-24T04:50:00;100465.25;;;20.01;46.97
71770;BME280;59605;52.122;5.420;2022-11-24T04:52:28;100474.75;;;20.02;47.08
71770;BME280;59605;52.122;5.420;2022-11-24T04:54:54;100482.56;;;20.02;47.35
71770;BME280;59605;52.122;5.420;2022-11-24T04:57:24;100493.00;;;20.02;47.04
71770;BME280;59605;52.122;5.420;2022-11-24T04:59:51;100489.66;;;20.00;46.91
71770;BME280;59605;52.122;5.420;2022-11-24T05:02:18;100492.28;;;20.00;47.40
71770;BME280;59605;52.122;5.420;2022-11-24T05:04:45;100507.00;;;20.01;46.98
71770;BME280;59605;52.122;5.420;2022-11-24T05:07:15;100513.16;;;20.00;47.11
71770;BME280;59605;52.122;5.420;2022-11-24T05:09:45;100515.06;;;19.98;46.96
71770;BME280;59605;52.122;5.420;2022-11-24T05:12:30;100521.91;;;19.99;47.02
71770;BME280;59605;52.122;5.420;2022-11-24T05:14:58;100521.09;;;19.98;47.11
71770;BME280;59605;52.122;5.420;2022-11-24T05:17:35;100518.63;;;19.97;47.14
71770;BME280;59605;52.122;5.420;2022-11-24T05:20:03;100535.09;;;19.97;47.33
71770;BME280;59605;52.122;5.420;2022-11-24T05:22:30;100535.22;;;19.96;47.19
71770;BME280;59605;52.122;5.420;2022-11-24T05:24:57;100536.06;;;19.96;46.91
71770;BME280;59605;52.122;5.420;2022-11-24T05:27:23;100539.63;;;19.95;46.97
71770;BME280;59605;52.122;5.420;2022-11-24T05:29:50;100549.22;;;19.95;46.97
71770;BME280;59605;52.122;5.420;2022-11-24T05:32:16;100551.00;;;19.94;47.23
71770;BME280;59605;52.122;5.420;2022-11-24T05:34:43;100544.97;;;19.94;46.97
71770;BME280;59605;52.122;5.420;2022-11-24T05:37:09;100551.97;;;19.93;47.24
71770;BME280;59605;52.122;5.420;2022-11-24T05:39:36;100557.28;;;19.92;46.89
71770;BME280;59605;52.122;5.420;2022-11-24T05:42:04;100564.28;;;19.91;47.26
71770;BME280;59605;52.122;5.420;2022-11-24T05:44:51;100567.72;;;19.92;47.15
71770;BME280;59605;52.122;5.420;2022-11-24T05:47:18;100567.72;;;19.92;46.86
71770;BME280;59605;52.122;5.420;2022-11-24T05:49:45;100579.94;;;19.91;47.13
71770;BME280;59605;52.122;5.420;2022-11-24T05:52:11;100585.97;;;19.92;47.26
71770;BME280;59605;52.122;5.420;2022-11-24T05:54:38;100586.94;;;19.91;47.27
71770;BME280;59605;52.122;5.420;2022-11-24T05:57:04;100594.91;;;19.89;47.08
71770;BME280;59605;52.122;5.420;2022-11-24T05:59:30;100603.53;;;19.90;47.15
71770;BME280;59605;52.122;5.420;2022-11-24T06:01:57;100607.94;;;19.89;46.97
71770;BME280;59605;52.122;5.420;2022-11-24T06:04:24;100613.97;;;19.90;46.90
71770;BME280;59605;52.122;5.420;2022-11-24T06:06:50;100614.09;;;19.88;47.11
71770;BME280;59605;52.122;5.420;2022-11-24T06:09:16;100614.09;;;19.88;46.94
71770;BME280;59605;52.122;5.420;2022-11-24T06:11:43;100617.66;;;19.87;47.14
71770;BME280;59605;52.122;5.420;2022-11-24T06:14:09;100633.16;;;19.88;47.22
71770;BME280;59605;52.122;5.420;2022-11-24T06:16:37;100642.78;;;19.88;46.90
71770;BME280;59605;52.122;5.420;2022-11-24T06:19:03;100640.31;;;19.86;47.36
71770;BME280;59605;52.122;5.420;2022-11-24T06:21:30;100649.06;;;19.85;47.01
71770;BME280;59605;52.122;5.420;2022-11-24T06:23:57;100648.25;;;19.85;47.31
71770;BME280;59605;52.122;5.420;2022-11-24T06:26:23;100652.53;;;19.86;47.40
71770;BME280;59605;52.122;5.420;2022-11-24T06:28:49;100662.09;;;19.85;47.13
71770;BME280;59605;52.122;5.420;2022-11-24T06:31:16;100678.72;;;19.84;47.28
71770;BME280;59605;52.122;5.420;2022-11-24T06:33:42;100665.69;;;19.84;47.23
71770;BME280;59605;52.122;5.420;2022-11-24T06:36:12;100674.31;;;19.85;47.01
71770;BME280;59605;52.122;5.420;2022-11-24T06:38:38;100689.16;;;19.84;47.23
71770;BME280;59605;52.122;5.420;2022-11-24T06:41:13;100690.91;;;19.84;47.21
71770;BME280;59605;52.122;5.420;2022-11-24T06:43:40;100693.41;;;19.85;47.24
71770;BME280;59605;52.122;5.420;2022-11-24T06:46:06;100697.81;;;19.85;47.29
71770;BME280;59605;52.122;5.420;2022-11-24T06:48:33;100707.28;;;19.86;47.39
71770;BME280;59605;52.122;5.420;2022-11-24T06:51:01;100711.66;;;19.85;47.80
71770;BME280;59605;52.122;5.420;2022-11-24T06:53:35;100708.00;;;19.88;47.63
71770;BME280;59605;52.122;5.420;2022-11-24T06:56:10;100715.81;;;19.88;47.56
71770;BME280;59605;52.122;5.420;2022-11-24T06:58:44;100719.25;;;19.88;48.00
71770;BME280;59605;52.122;5.420;2022-11-24T07:01:21;100727.91;;;19.89;47.78
71770;BME280;59605;52.122;5.420;2022-11-24T07:03:49;100729.69;;;19.88;47.69
71770;BME280;59605;52.122;5.420;2022-11-24T07:06:16;100741.91;;;19.88;47.92
71770;BME280;59605;52.122;5.420;2022-11-24T07:08:44;100738.34;;;19.89;47.61
71770;BME280;59605;52.122;5.420;2022-11-24T07:11:13;100744.50;;;19.88;47.61
71770;BME280;59605;52.122;5.420;2022-11-24T07:13:41;100745.19;;;19.90;47.57
71770;BME280;59605;52.122;5.420;2022-11-24T07:16:22;100755.63;;;19.90;47.62
71770;BME280;59605;52.122;5.420;2022-11-24T07:18:51;100759.09;;;19.91;48.05
71770;BME280;59605;52.122;5.420;2022-11-24T07:21:19;100765.13;;;19.91;47.85
71770;BME280;59605;52.122;5.420;2022-11-24T07:23:50;100788.59;;;19.91;47.95
71770;BME280;59605;52.122;5.420;2022-11-24T07:26:17;100773.06;;;19.90;48.27
71770;BME280;59605;52.122;5.420;2022-11-24T07:28:44;100773.91;;;19.90;48.32
71770;BME280;59605;52.122;5.420;2022-11-24T07:31:13;100782.44;;;19.92;48.41
71770;BME280;59605;52.122;5.420;2022-11-24T07:33:40;100779.00;;;19.92;48.57
71770;BME280;59605;52.122;5.420;2022-11-24T07:36:07;100781.41;;;19.95;48.83
71770;BME280;59605;52.122;5.420;2022-11-24T07:38:34;100792.66;;;19.95;48.36
71770;BME280;59605;52.122;5.420;2022-11-24T07:41:06;100803.06;;;19.95;48.46
71770;BME280;59605;52.122;5.420;2022-11-24T07:43:34;100798.81;;;19.94;48.66
71770;BME280;59605;52.122;5.420;2022-11-24T07:46:02;100808.28;;;19.95;48.61
71770;BME280;59605;52.122;5.420;2022-11-24T07:48:28;100814.22;;;19.97;49.02
71770;BME280;59605;52.122;5.420;2022-11-24T07:50:57;100808.06;;;19.98;49.04
71770;BME280;59605;52.122;5.420;2022-11-24T07:53:24;100809.72;;;19.99;49.07
71770;BME280;59605;52.122;5.420;2022-11-24T07:55:55;100822.66;;;20.01;49.34
71770;BME280;59605;52.122;5.420;2022-11-24T07:58:23;100826.06;;;20.01;49.19
71770;BME280;59605;52.122;5.420;2022-11-24T08:00:57;100835.56;;;20.02;49.18
71770;BME280;59605;52.122;5.420;2022-11-24T08:03:23;100842.47;;;20.03;49.58
71770;BME280;59605;52.122;5.420;2022-11-24T08:05:55;100850.28;;;20.03;49.66
71770;BME280;59605;52.122;5.420;2022-11-24T08:08:41;100858.94;;;20.04;49.85
71770;BME280;59605;52.122;5.420;2022-11-24T08:11:11;100857.03;;;20.06;49.77
71770;BME280;59605;52.122;5.420;2022-11-24T08:13:38;100858.81;;;20.05;49.68
71770;BME280;59605;52.122;5.420;2022-11-24T08:16:06;100869.25;;;20.05;49.22
71770;BME280;59605;52.122;5.420;2022-11-24T08:18:34;100865.09;;;20.03;49.56
71770;BME280;59605;52.122;5.420;2022-11-24T08:21:02;100866.75;;;20.04;49.61
71770;BME280;59605;52.122;5.420;2022-11-24T08:23:29;100870.19;;;20.04;49.95
71770;BME280;59605;52.122;5.420;2022-11-24T08:25:56;100868.31;;;20.07;49.89
71770;BME280;59605;52.122;5.420;2022-11-24T08:28:25;100864.84;;;20.06;49.64
71770;BME280;59605;52.122;5.420;2022-11-24T08:30:51;100872.44;;;20.09;49.93
71770;BME280;59605;52.122;5.420;2022-11-24T08:33:18;100875.06;;;20.09;49.80
71770;BME280;59605;52.122;5.420;2022-11-24T08:35:44;100880.19;;;20.11;49.87
71770;BME280;59605;52.122;5.420;2022-11-24T08:38:11;100881.81;;;20.12;50.26
71770;BME280;59605;52.122;5.420;2022-11-24T08:40:37;100889.53;;;20.13;50.14
71770;BME280;59605;52.122;5.420;2022-11-24T08:43:03;100881.69;;;20.13;49.88
71770;BME280;59605;52.122;5.420;2022-11-24T08:45:30;100889.53;;;20.13;50.04
71770;BME280;59605;52.122;5.420;2022-11-24T08:48:00;100895.47;;;20.15;50.12
71770;BME280;59605;52.122;5.420;2022-11-24T08:50:26;100890.16;;;20.17;50.51
71770;BME280;59605;52.122;5.420;2022-11-24T08:52:53;100896.19;;;20.17;50.21
71770;BME280;59605;52.122;5.420;2022-11-24T08:55:19;100904.81;;;20.18;50.49
71770;BME280;59605;52.122;5.420;2022-11-24T08:57:46;100910.91;;;20.18;51.04
71770;BME280;59605;52.122;5.420;2022-11-24T09:00:12;100910.91;;;20.18;50.32
71770;BME280;59605;52.122;5.420;2022-11-24T09:02:39;100908.41;;;20.17;50.40
71770;BME280;59605;52.122;5.420;2022-11-24T09:05:07;100917.06;;;20.17;50.46
71770;BME280;59605;52.122;5.420;2022-11-24T09:07:54;100918.72;;;20.18;50.38
71770;BME280;59605;52.122;5.420;2022-11-24T09:10:20;100923.00;;;20.19;50.19
71770;BME280;59605;52.122;5.420;2022-11-24T09:12:47;100936.88;;;20.20;50.52
71770;BME280;59605;52.122;5.420;2022-11-24T09:15:13;100933.53;;;20.18;50.57
71770;BME280;59605;52.122;5.420;2022-11-24T09:17:41;100941.28;;;20.19;50.56
71770;BME280;59605;52.122;5.420;2022-11-24T09:20:08;100933.31;;;20.21;50.44
71770;BME280;59605;52.122;5.420;2022-11-24T09:22:35;100936.06;;;20.19;50.72
71770;BME280;59605;52.122;5.420;2022-11-24T09:25:04;100947.19;;;20.21;50.40
71770;BME280;59605;52.122;5.420;2022-11-24T09:27:31;100943.66;;;20.22;50.22
71770;BME280;59605;52.122;5.420;2022-11-24T09:29:58;100944.59;;;20.21;50.53
71770;BME280;59605;52.122;5.420;2022-11-24T09:32:24;100952.31;;;20.23;50.27
71770;BME280;59605;52.122;5.420;2022-11-24T09:34:51;100952.31;;;20.23;50.58
71770;BME280;59605;52.122;5.420;2022-11-24T09:37:17;100957.53;;;20.23;50.29
71770;BME280;59605;52.122;5.420;2022-11-24T09:39:43;100966.16;;;20.23;50.23
71770;BME280;59605;52.122;5.420;2022-11-24T09:42:19;100962.75;;;20.23;50.33
71770;BME280;59605;52.122;5.420;2022-11-24T09:45:08;100967.84;;;20.25;49.91
71770;BME280;59605;52.122;5.420;2022-11-24T09:48:01;100972.25;;;20.24;50.35
71770;BME280;59605;52.122;5.420;2022-11-24T09:50:34;100975.66;;;20.25;50.24
71770;BME280;59605;52.122;5.420;2022-11-24T09:58:17;100986.94;;;20.25;50.28
71770;BME280;59605;52.122;5.420;2022-11-24T10:00:49;100991.34;;;20.25;50.14
71770;BME280;59605;52.122;5.420;2022-11-24T10:03:48;100986.94;;;20.25;49.94
71770;BME280;59605;52.122;5.420;2022-11-24T10:06:25;100998.22;;;20.26;50.09
71770;BME280;59605;52.122;5.420;2022-11-24T10:11:38;100999.03;;;20.26;50.12
71770;BME280;59605;52.122;5.420;2022-11-24T10:14:15;101012.84;;;20.28;49.84
71770;BME280;59605;52.122;5.420;2022-11-24T10:20:04;101013.66;;;20.29;49.97
71770;BME280;59605;52.122;5.420;2022-11-24T10:25:41;101024.91;;;20.29;49.72
71770;BME280;59605;52.122;5.420;2022-11-24T10:28:12;101024.91;;;20.29;49.93
71770;BME280;59605;52.122;5.420;2022-11-24T10:30:39;101025.66;;;20.31;49.85
71770;BME280;59605;52.122;5.420;2022-11-24T10:33:18;101037.03;;;20.30;49.46
71770;BME280;59605;52.122;5.420;2022-11-24T10:36:04;101039.53;;;20.32;49.68
71770;BME280;59605;52.122;5.420;2022-11-24T10:38:48;101042.94;;;20.32;49.71
71770;BME280;59605;52.122;5.420;2022-11-24T10:41:23;101044.63;;;20.33;49.66
71770;BME280;59605;52.122;5.420;2022-11-24T10:43:51;101042.00;;;20.33;49.84
71770;BME280;59605;52.122;5.420;2022-11-24T10:46:27;101043.69;;;20.34;49.78
71770;BME280;59605;52.122;5.420;2022-11-24T10:49:03;101052.34;;;20.35;49.62
71770;BME280;59605;52.122;5.420;2022-11-24T10:51:42;101054.00;;;20.36;49.68
71770;BME280;59605;52.122;5.420;2022-11-24T10:54:17;101052.22;;;20.36;49.77
71770;BME280;59605;52.122;5.420;2022-11-24T10:56:45;101053.78;;;20.39;49.70
71770;BME280;59605;52.122;5.420;2022-11-24T11:01:51;101057.22;;;20.39;49.71
71770;BME280;59605;52.122;5.420;2022-11-24T11:04:26;101061.38;;;20.42;49.94
71770;BME280;59605;52.122;5.420;2022-11-24T11:07:14;101062.19;;;20.43;49.52
71770;BME280;59605;52.122;5.420;2022-11-24T11:09:42;101068.28;;;20.43;49.66
71770;BME280;59605;52.122;5.420;2022-11-24T11:12:26;101065.66;;;20.43;49.54
71770;BME280;59605;52.122;5.420;2022-11-24T11:15:24;101071.59;;;20.45;49.51
71770;BME280;59605;52.122;5.420;2022-11-24T11:17:56;101066.25;;;20.47;49.61
71770;BME280;59605;52.122;5.420;2022-11-24T11:20:27;101065.31;;;20.48;49.84
71770;BME280;59605;52.122;5.420;2022-11-24T11:22:56;101070.28;;;20.51;50.03
71770;BME280;59605;52.122;5.420;2022-11-24T11:25:30;101064.00;;;20.53;50.21
71770;BME280;59605;52.122;5.420;2022-11-24T11:28:18;101063.91;;;20.55;50.20
71770;BME280;59605;52.122;5.420;2022-11-24T11:31:01;101067.22;;;20.57;50.36
71770;BME280;59605;52.122;5.420;2022-11-24T11:34:12;101067.09;;;20.58;50.48
71770;BME280;59605;52.122;5.420;2022-11-24T11:36:53;101062.59;;;20.61;50.19
71770;BME280;59605;52.122;5.420;2022-11-24T11:39:28;101065.09;;;20.62;50.24
71770;BME280;59605;52.122;5.420;2022-11-24T11:42:16;101058.81;;;20.65;50.36
71770;BME280;59605;52.122;5.420;2022-11-24T11:45:23;101062.16;;;20.67;50.48
71770;BME280;59605;52.122;5.420;2022-11-24T11:50:38;101064.53;;;20.70;50.50
71770;BME280;59605;52.122;5.420;2022-11-24T11:53:42;101065.16;;;20.73;50.52
71770;BME280;59605;52.122;5.420;2022-11-24T11:56:21;101065.84;;;20.75;50.34
71770;BME280;59605;52.122;5.420;2022-11-24T12:15:51;101072.28;;;20.83;50.43
71770;BME280;59605;52.122;5.420;2022-11-24T12:18:40;101062.66;;;20.83;50.33
71770;BME280;59605;52.122;5.420;2022-11-24T12:21:30;101061.69;;;20.84;50.51
71770;BME280;59605;52.122;5.420;2022-11-24T12:26:50;101071.34;;;20.84;50.51
71770;BME280;59605;52.122;5.420;2022-11-24T12:29:43;101072.28;;;20.83;50.43
71770;BME280;59605;52.122;5.420;2022-11-24T12:35:11;101069.78;;;20.81;50.43
71770;BME280;59605;52.122;5.420;2022-11-24T12:40:39;101076.06;;;20.79;50.46
71770;BME280;59605;52.122;5.420;2022-11-24T12:43:34;101074.28;;;20.79;50.15
71770;BME280;59605;52.122;5.420;2022-11-24T12:49:07;101086.63;;;20.77;50.51
71770;BME280;59605;52.122;5.420;2022-11-24T12:51:39;101084.97;;;20.76;50.57
71770;BME280;59605;52.122;5.420;2022-11-24T12:54:16;101095.41;;;20.76;50.50
71770;BME280;59605;52.122;5.420;2022-11-24T12:56:52;101098.88;;;20.77;50.21
71770;BME280;59605;52.122;5.420;2022-11-24T12:59:44;101093.66;;;20.77;50.12
71770;BME280;59605;52.122;5.420;2022-11-24T13:05:22;101090.91;;;20.78;50.27
71770;BME280;59605;52.122;5.420;2022-11-24T13:07:56;101092.44;;;20.81;50.26
71770;BME280;59605;52.122;5.420;2022-11-24T13:13:11;101085.44;;;20.81;50.29
71770;BME280;59605;52.122;5.420;2022-11-24T13:18:51;101093.19;;;20.83;50.02
71770;BME280;59605;52.122;5.420;2022-11-24T13:26:49;101092.69;;;20.78;49.98
71770;BME280;59605;52.122;5.420;2022-11-24T13:29:30;101082.34;;;20.76;50.40
71770;BME280;59605;52.122;5.420;2022-11-24T13:40:26;101080.09;;;20.71;50.05
71770;BME280;59605;52.122;5.420;2022-11-24T13:53:35;101086.25;;;20.70;49.90
71770;BME280;59605;52.122;5.420;2022-11-24T13:56:20;101091.59;;;20.69;50.23
71770;BME280;59605;52.122;5.420;2022-11-24T13:58:59;101085.44;;;20.70;50.32
71770;BME280;59605;52.122;5.420;2022-11-24T14:01:29;101088.97;;;20.69;50.24
71770;BME280;59605;52.122;5.420;2022-11-24T14:04:11;101086.50;;;20.67;49.89
71770;BME280;59605;52.122;5.420;2022-11-24T14:07:02;101083.16;;;20.65;49.99
71770;BME280;59605;52.122;5.420;2022-11-24T14:09:43;101082.25;;;20.66;49.79
71770;BME280;59605;52.122;5.420;2022-11-24T14:12:20;101084.84;;;20.66;49.85
71770;BME280;59605;52.122;5.420;2022-11-24T14:14:49;101083.97;;;20.66;49.98
71770;BME280;59605;52.122;5.420;2022-11-24T14:17:26;101086.56;;;20.66;49.82
71770;BME280;59605;52.122;5.420;2022-11-24T14:19:55;101084.09;;;20.64;49.80
71770;BME280;59605;52.122;5.420;2022-11-24T14:22:25;101082.41;;;20.63;49.79
71770;BME280;59605;52.122;5.420;2022-11-24T14:24:54;101071.13;;;20.63;50.20
71770;BME280;59605;52.122;5.420;2022-11-24T14:27:26;101079.72;;;20.65;50.10
71770;BME280;59605;52.122;5.420;2022-11-24T14:29:58;101065.09;;;20.62;50.45
71770;BME280;59605;52.122;5.420;2022-11-24T14:32:26;101064.13;;;20.63;50.10
71770;BME280;59605;52.122;5.420;2022-11-24T14:34:52;101070.31;;;20.62;50.62